sensor_id;sensor_type;location;lat;lon;timestamp;temperature;humidity
16901;DHT22;8567;52.540;6.434;2024-02-26T00:01:48;18.90;51.60
16901;DHT22;8567;52.540;6.434;2024-02-26T00:04:15;18.90;51.60
16901;DHT22;8567;52.540;6.434;2024-02-26T00:06:43;18.90;51.80
16901;DHT22;8567;52.540;6.434;2024-02-26T00:09:09;19.00;51.90
16901;DHT22;8567;52.540;6.434;2024-02-26T00:11:36;18.90;52.00
16901;DHT22;8567;52.540;6.434;2024-02-26T00:14:03;18.90;52.10
16901;DHT22;8567;52.540;6.434;2024-02-26T00:16:30;19.00;52.20
16901;DHT22;8567;52.540;6.434;2024-02-26T00:18:59;19.00;52.20
16901;DHT22;8567;52.540;6.434;2024-02-26T00:21:25;18.90;52.40
16901;DHT22;8567;52.540;6.434;2024-02-26T00:23:53;18.90;52.40
16901;DHT22;8567;52.540;6.434;2024-02-26T00:26:20;18.90;52.50
16901;DHT22;8567;52.540;6.434;2024-02-26T00:28:46;18.90;52.60
16901;DHT22;8567;52.540;6.434;2024-02-26T00:31:13;19.00;52.70
16901;DHT22;8567;52.540;6.434;2024-02-26T00:33:40;19.00;52.80
16901;DHT22;8567;52.540;6.434;2024-02-26T00:36:08;19.00;52.80
16901;DHT22;8567;52.540;6.434;2024-02-26T00:38:35;19.00;52.90
16901;DHT22;8567;52.540;6.434;2024-02-26T00:41:02;18.90;53.00
16901;DHT22;8567;52.540;6.434;2024-02-26T00:43:29;18.90;52.90
16901;DHT22;8567;52.540;6.434;2024-02-26T00:45:56;18.90;53.10
16901;DHT22;8567;52.540;6.434;2024-02-26T00:48:23;18.90;53.00
16901;DHT22;8567;52.540;6.434;2024-02-26T00:50:51;19.00;53.20
16901;DHT22;8567;52.540;6.434;2024-02-26T00:53:19;19.00;53.10
16901;DHT22;8567;52.540;6.434;2024-02-26T00:55:46;19.00;53.20
16901;DHT22;8567;52.540;6.434;2024-02-26T00:58:13;19.00;53.20
16901;DHT22;8567;52.540;6.434;2024-02-26T01:00:39;19.00;53.30
16901;DHT22;8567;52.540;6.434;2024-02-26T01:03:06;19.00;53.30
16901;DHT22;8567;52.540;6.434;2024-02-26T01:05:33;19.00;53.40
16901;DHT22;8567;52.540;6.434;2024-02-26T01:08:00;19.00;53.40
16901;DHT22;8567;52.540;6.434;2024-02-26T01:10:28;19.00;53.50
16901;DHT22;8567;52.540;6.434;2024-02-26T01:12:55;18.90;53.50
16901;DHT22;8567;52.540;6.434;2024-02-26T01:15:22;18.90;53.40
16901;DHT22;8567;52.540;6.434;2024-02-26T01:17:49;18.90;53.50
16901;DHT22;8567;52.540;6.434;2024-02-26T01:20:16;18.90;53.60
16901;DHT22;8567;52.540;6.434;2024-02-26T01:22:43;19.00;53.60
16901;DHT22;8567;52.540;6.434;2024-02-26T01:25:10;19.00;53.70
16901;DHT22;8567;52.540;6.434;2024-02-26T01:27:38;18.90;53.60
16901;DHT22;8567;52.540;6.434;2024-02-26T01:30:07;19.00;53.70
16901;DHT22;8567;52.540;6.434;2024-02-26T01:32:34;18.90;53.70
16901;DHT22;8567;52.540;6.434;2024-02-26T01:35:02;18.90;53.80
16901;DHT22;8567;52.540;6.434;2024-02-26T01:37:30;19.00;53.80
16901;DHT22;8567;52.540;6.434;2024-02-26T01:39:57;18.90;53.80
16901;DHT22;8567;52.540;6.434;2024-02-26T01:42:24;19.00;53.80
16901;DHT22;8567;52.540;6.434;2024-02-26T01:44:52;19.00;53.90
16901;DHT22;8567;52.540;6.434;2024-02-26T01:47:19;18.90;53.90
16901;DHT22;8567;52.540;6.434;2024-02-26T01:49:46;19.00;53.90
16901;DHT22;8567;52.540;6.434;2024-02-26T01:52:13;19.00;53.90
16901;DHT22;8567;52.540;6.434;2024-02-26T01:54:40;18.90;53.90
16901;DHT22;8567;52.540;6.434;2024-02-26T01:57:08;19.00;54.00
16901;DHT22;8567;52.540;6.434;2024-02-26T01:59:35;19.00;54.00
16901;DHT22;8567;52.540;6.434;2024-02-26T02:02:06;18.90;54.00
16901;DHT22;8567;52.540;6.434;2024-02-26T02:04:34;18.90;54.00
16901;DHT22;8567;52.540;6.434;2024-02-26T02:07:02;18.90;54.00
16901;DHT22;8567;52.540;6.434;2024-02-26T02:09:29;18.90;54.10
16901;DHT22;8567;52.540;6.434;2024-02-26T02:11:56;18.90;54.10
16901;DHT22;8567;52.540;6.434;2024-02-26T02:14:23;18.90;54.10
16901;DHT22;8567;52.540;6.434;2024-02-26T02:16:50;18.90;54.10
16901;DHT22;8567;52.540;6.434;2024-02-26T02:19:18;19.00;54.10
16901;DHT22;8567;52.540;6.434;2024-02-26T02:21:46;18.90;54.10
16901;DHT22;8567;52.540;6.434;2024-02-26T02:24:13;18.90;54.10
16901;DHT22;8567;52.540;6.434;2024-02-26T02:26:40;18.90;54.10
16901;DHT22;8567;52.540;6.434;2024-02-26T02:29:07;18.90;54.10
16901;DHT22;8567;52.540;6.434;2024-02-26T02:31:35;18.90;54.10
16901;DHT22;8567;52.540;6.434;2024-02-26T02:34:02;18.90;54.20
16901;DHT22;8567;52.540;6.434;2024-02-26T02:36:29;18.90;54.20
16901;DHT22;8567;52.540;6.434;2024-02-26T02:38:57;18.90;54.20
16901;DHT22;8567;52.540;6.434;2024-02-26T02:41:24;18.90;54.20
16901;DHT22;8567;52.540;6.434;2024-02-26T02:43:52;19.00;54.20
16901;DHT22;8567;52.540;6.434;2024-02-26T02:46:19;18.90;54.20
16901;DHT22;8567;52.540;6.434;2024-02-26T02:48:45;18.90;54.20
16901;DHT22;8567;52.540;6.434;2024-02-26T02:51:12;18.90;54.20
16901;DHT22;8567;52.540;6.434;2024-02-26T02:53:39;18.90;54.30
16901;DHT22;8567;52.540;6.434;2024-02-26T02:56:07;18.90;54.30
16901;DHT22;8567;52.540;6.434;2024-02-26T02:58:34;18.90;54.30
16901;DHT22;8567;52.540;6.434;2024-02-26T03:01:01;18.90;54.20
16901;DHT22;8567;52.540;6.434;2024-02-26T03:03:28;18.90;54.20
16901;DHT22;8567;52.540;6.434;2024-02-26T03:05:54;18.90;54.30
16901;DHT22;8567;52.540;6.434;2024-02-26T03:08:22;18.90;54.30
16901;DHT22;8567;52.540;6.434;2024-02-26T03:10:49;18.90;54.30
16901;DHT22;8567;52.540;6.434;2024-02-26T03:13:17;18.90;54.30
16901;DHT22;8567;52.540;6.434;2024-02-26T03:15:44;18.90;54.30
16901;DHT22;8567;52.540;6.434;2024-02-26T03:18:11;18.90;54.30
16901;DHT22;8567;52.540;6.434;2024-02-26T03:20:38;18.90;54.30
16901;DHT22;8567;52.540;6.434;2024-02-26T03:23:05;18.90;54.30
16901;DHT22;8567;52.540;6.434;2024-02-26T03:25:32;18.90;54.20
16901;DHT22;8567;52.540;6.434;2024-02-26T03:27:59;18.90;54.30
16901;DHT22;8567;52.540;6.434;2024-02-26T03:30:27;18.90;54.20
16901;DHT22;8567;52.540;6.434;2024-02-26T03:32:54;18.90;54.20
16901;DHT22;8567;52.540;6.434;2024-02-26T03:35:21;18.90;54.20
16901;DHT22;8567;52.540;6.434;2024-02-26T03:37:47;18.90;54.20
16901;DHT22;8567;52.540;6.434;2024-02-26T03:40:16;18.90;54.20
16901;DHT22;8567;52.540;6.434;2024-02-26T03:42:44;18.90;54.20
16901;DHT22;8567;52.540;6.434;2024-02-26T03:45:11;18.90;54.20
16901;DHT22;8567;52.540;6.434;2024-02-26T03:47:39;18.90;54.20
16901;DHT22;8567;52.540;6.434;2024-02-26T03:50:07;18.90;54.20
16901;DHT22;8567;52.540;6.434;2024-02-26T03:52:34;18.90;54.20
16901;DHT22;8567;52.540;6.434;2024-02-26T03:55:01;18.90;54.20
16901;DHT22;8567;52.540;6.434;2024-02-26T03:57:28;18.90;54.20
16901;DHT22;8567;52.540;6.434;2024-02-26T03:59:55;18.90;54.20
16901;DHT22;8567;52.540;6.434;2024-02-26T04:02:22;18.90;54.20
16901;DHT22;8567;52.540;6.434;2024-02-26T04:04:50;18.90;54.20
16901;DHT22;8567;52.540;6.434;2024-02-26T04:07:17;18.90;54.20
16901;DHT22;8567;52.540;6.434;2024-02-26T04:09:44;18.90;54.30
16901;DHT22;8567;52.540;6.434;2024-02-26T04:12:11;18.90;54.20
16901;DHT22;8567;52.540;6.434;2024-02-26T04:14:38;18.90;54.20
16901;DHT22;8567;52.540;6.434;2024-02-26T04:17:04;18.90;54.30
16901;DHT22;8567;52.540;6.434;2024-02-26T04:19:31;18.90;54.30
16901;DHT22;8567;52.540;6.434;2024-02-26T04:21:59;18.90;54.30
16901;DHT22;8567;52.540;6.434;2024-02-26T04:24:27;18.90;54.20
16901;DHT22;8567;52.540;6.434;2024-02-26T04:26:53;18.90;54.30
16901;DHT22;8567;52.540;6.434;2024-02-26T04:29:20;18.90;54.30
16901;DHT22;8567;52.540;6.434;2024-02-26T04:31:47;18.90;54.20
16901;DHT22;8567;52.540;6.434;2024-02-26T04:34:14;18.90;54.30
16901;DHT22;8567;52.540;6.434;2024-02-26T04:36:40;18.90;54.30
16901;DHT22;8567;52.540;6.434;2024-02-26T04:39:09;18.90;54.30
16901;DHT22;8567;52.540;6.434;2024-02-26T04:41:36;18.90;54.30
16901;DHT22;8567;52.540;6.434;2024-02-26T04:44:03;18.90;54.30
16901;DHT22;8567;52.540;6.434;2024-02-26T04:46:30;18.90;54.30
16901;DHT22;8567;52.540;6.434;2024-02-26T04:48:57;18.90;54.30
16901;DHT22;8567;52.540;6.434;2024-02-26T04:51:24;18.90;54.30
16901;DHT22;8567;52.540;6.434;2024-02-26T04:53:51;18.90;54.30
16901;DHT22;8567;52.540;6.434;2024-02-26T04:56:20;18.90;54.30
16901;DHT22;8567;52.540;6.434;2024-02-26T04:58:47;18.90;54.30
16901;DHT22;8567;52.540;6.434;2024-02-26T05:01:14;18.90;54.30
16901;DHT22;8567;52.540;6.434;2024-02-26T05:03:42;18.90;54.30
16901;DHT22;8567;52.540;6.434;2024-02-26T05:06:09;18.90;54.30
16901;DHT22;8567;52.540;6.434;2024-02-26T05:08:36;18.90;54.30
16901;DHT22;8567;52.540;6.434;2024-02-26T05:11:04;18.90;54.30
16901;DHT22;8567;52.540;6.434;2024-02-26T05:13:33;18.90;54.30
16901;DHT22;8567;52.540;6.434;2024-02-26T05:16:00;18.90;54.40
16901;DHT22;8567;52.540;6.434;2024-02-26T05:18:27;18.90;54.40
16901;DHT22;8567;52.540;6.434;2024-02-26T05:20:54;18.90;54.40
16901;DHT22;8567;52.540;6.434;2024-02-26T05:23:21;18.90;54.30
16901;DHT22;8567;52.540;6.434;2024-02-26T05:25:48;18.90;54.30
16901;DHT22;8567;52.540;6.434;2024-02-26T05:28:15;18.90;54.40
16901;DHT22;8567;52.540;6.434;2024-02-26T05:30:43;18.90;54.40
16901;DHT22;8567;52.540;6.434;2024-02-26T05:33:10;18.90;54.40
16901;DHT22;8567;52.540;6.434;2024-02-26T05:35:37;18.90;54.40
16901;DHT22;8567;52.540;6.434;2024-02-26T05:38:04;18.90;54.40
16901;DHT22;8567;52.540;6.434;2024-02-26T05:40:31;18.90;54.40
16901;DHT22;8567;52.540;6.434;2024-02-26T05:42:56;18.90;54.40
16901;DHT22;8567;52.540;6.434;2024-02-26T05:45:23;18.90;54.40
16901;DHT22;8567;52.540;6.434;2024-02-26T05:47:51;18.90;54.40
16901;DHT22;8567;52.540;6.434;2024-02-26T05:50:18;18.90;54.30
16901;DHT22;8567;52.540;6.434;2024-02-26T05:52:45;18.90;54.40
16901;DHT22;8567;52.540;6.434;2024-02-26T05:55:12;18.90;54.30
16901;DHT22;8567;52.540;6.434;2024-02-26T05:57:39;18.90;54.30
16901;DHT22;8567;52.540;6.434;2024-02-26T06:00:07;18.90;54.30
16901;DHT22;8567;52.540;6.434;2024-02-26T06:02:34;18.90;54.30
16901;DHT22;8567;52.540;6.434;2024-02-26T06:05:03;18.90;54.40
16901;DHT22;8567;52.540;6.434;2024-02-26T06:07:30;18.90;54.30
16901;DHT22;8567;52.540;6.434;2024-02-26T06:09:56;18.90;54.30
16901;DHT22;8567;52.540;6.434;2024-02-26T06:12:23;18.90;54.30
16901;DHT22;8567;52.540;6.434;2024-02-26T06:14:50;19.00;54.30
16901;DHT22;8567;52.540;6.434;2024-02-26T06:17:16;18.90;54.30
16901;DHT22;8567;52.540;6.434;2024-02-26T06:19:43;18.90;54.40
16901;DHT22;8567;52.540;6.434;2024-02-26T06:22:11;18.90;54.30
16901;DHT22;8567;52.540;6.434;2024-02-26T06:24:38;18.90;54.20
16901;DHT22;8567;52.540;6.434;2024-02-26T06:27:05;18.90;54.40
16901;DHT22;8567;52.540;6.434;2024-02-26T06:29:32;18.90;54.40
16901;DHT22;8567;52.540;6.434;2024-02-26T06:31:59;19.00;54.40
16901;DHT22;8567;52.540;6.434;2024-02-26T06:34:26;18.90;54.30
16901;DHT22;8567;52.540;6.434;2024-02-26T06:36:53;18.90;54.30
16901;DHT22;8567;52.540;6.434;2024-02-26T06:39:21;19.00;54.30
16901;DHT22;8567;52.540;6.434;2024-02-26T06:41:47;18.90;54.40
16901;DHT22;8567;52.540;6.434;2024-02-26T06:44:14;19.00;54.30
16901;DHT22;8567;52.540;6.434;2024-02-26T06:46:41;19.00;54.30
16901;DHT22;8567;52.540;6.434;2024-02-26T06:49:08;19.00;54.50
16901;DHT22;8567;52.540;6.434;2024-02-26T06:51:34;19.00;54.70
16901;DHT22;8567;52.540;6.434;2024-02-26T06:54:01;19.00;54.90
16901;DHT22;8567;52.540;6.434;2024-02-26T06:56:29;19.00;54.90
16901;DHT22;8567;52.540;6.434;2024-02-26T06:58:56;19.00;55.00
16901;DHT22;8567;52.540;6.434;2024-02-26T07:01:23;19.00;55.10
16901;DHT22;8567;52.540;6.434;2024-02-26T07:03:50;19.00;55.20
16901;DHT22;8567;52.540;6.434;2024-02-26T07:06:16;19.00;55.30
16901;DHT22;8567;52.540;6.434;2024-02-26T07:08:43;19.00;55.40
16901;DHT22;8567;52.540;6.434;2024-02-26T07:11:10;19.10;55.40
16901;DHT22;8567;52.540;6.434;2024-02-26T07:13:38;19.10;55.40
16901;DHT22;8567;52.540;6.434;2024-02-26T07:16:06;19.10;55.40
16901;DHT22;8567;52.540;6.434;2024-02-26T07:18:35;19.10;55.50
16901;DHT22;8567;52.540;6.434;2024-02-26T07:21:02;19.10;55.80
16901;DHT22;8567;52.540;6.434;2024-02-26T07:23:30;19.10;55.80
16901;DHT22;8567;52.540;6.434;2024-02-26T07:25:56;19.10;56.00
16901;DHT22;8567;52.540;6.434;2024-02-26T07:28:24;19.10;55.60
16901;DHT22;8567;52.540;6.434;2024-02-26T07:30:52;19.10;55.40
16901;DHT22;8567;52.540;6.434;2024-02-26T07:33:18;19.10;55.30
16901;DHT22;8567;52.540;6.434;2024-02-26T07:35:45;19.10;55.20
16901;DHT22;8567;52.540;6.434;2024-02-26T07:38:12;19.10;55.30
16901;DHT22;8567;52.540;6.434;2024-02-26T07:40:39;19.10;55.30
16901;DHT22;8567;52.540;6.434;2024-02-26T07:43:06;19.10;55.30
16901;DHT22;8567;52.540;6.434;2024-02-26T07:45:33;19.10;55.20
16901;DHT22;8567;52.540;6.434;2024-02-26T07:48:03;19.10;55.10
16901;DHT22;8567;52.540;6.434;2024-02-26T07:50:30;19.10;54.50
16901;DHT22;8567;52.540;6.434;2024-02-26T07:52:57;19.10;54.40
16901;DHT22;8567;52.540;6.434;2024-02-26T07:55:24;19.10;54.30
16901;DHT22;8567;52.540;6.434;2024-02-26T07:57:51;19.00;54.20
16901;DHT22;8567;52.540;6.434;2024-02-26T08:00:18;19.00;54.20
16901;DHT22;8567;52.540;6.434;2024-02-26T08:02:45;19.00;54.10
16901;DHT22;8567;52.540;6.434;2024-02-26T08:05:14;19.00;54.10
16901;DHT22;8567;52.540;6.434;2024-02-26T08:07:40;19.00;54.10
16901;DHT22;8567;52.540;6.434;2024-02-26T08:10:08;19.00;54.00
16901;DHT22;8567;52.540;6.434;2024-02-26T23:32:44;19.60;64.60
16901;DHT22;8567;52.540;6.434;2024-02-26T23:35:11;19.50;64.70
16901;DHT22;8567;52.540;6.434;2024-02-26T23:37:38;19.50;64.70
16901;DHT22;8567;52.540;6.434;2024-02-26T23:40:06;19.50;64.80
16901;DHT22;8567;52.540;6.434;2024-02-26T23:42:33;19.50;64.80
16901;DHT22;8567;52.540;6.434;2024-02-26T23:45:00;19.40;64.90
16901;DHT22;8567;52.540;6.434;2024-02-26T23:47:28;19.40;64.80
16901;DHT22;8567;52.540;6.434;2024-02-26T23:49:55;19.40;64.90
16901;DHT22;8567;52.540;6.434;2024-02-26T23:52:22;19.40;64.80
16901;DHT22;8567;52.540;6.434;2024-02-26T23:54:49;19.40;64.90
16901;DHT22;8567;52.540;6.434;2024-02-26T23:57:16;19.40;64.80
16901;DHT22;8567;52.540;6.434;2024-02-26T23:59:43;19.40;64.70
